Time;durP1;ratioP1;P1;durP2;ratioP2;P2;SDS_P1;SDS_P2;PMS_P1;PMS_P2;Temp;Humidity;BMP_temperature;BMP_pressure;BME280_temperature;BME280_humidity;BME280_pressure;Samples;Min_cycle;Max_cycle;Signal;HPM_P1;HPM_P2
2022/06/30 00:00:46;;;;;;;8.97;8.27;;;;;25.50;100098.00;;;;2079222;28;20209;-51
2022/06/30 00:01:46;;;;;;;8.50;7.80;;;;;25.40;100100.00;;;;2074890;28;20221;-51
2022/06/30 00:02:47;;;;;;;8.07;7.40;;;;;25.50;100097.00;;;;2076311;28;20237;-50
2022/06/30 00:03:47;;;;;;;8.57;7.87;;;;;25.40;100094.00;;;;2073213;28;20216;-49
2022/06/30 00:04:48;;;;;;;9.60;8.80;;;;;25.50;100098.00;;;;2070843;28;20274;-52
2022/06/30 00:05:48;;;;;;;8.35;7.72;;;;;25.40;100098.00;;;;2070993;28;20217;-49
2022/06/30 00:06:50;;;;;;;8.83;8.20;;;;;25.40;100088.00;;;;2076519;28;20217;-50
2022/06/30 00:07:50;;;;;;;8.30;7.60;;;;;25.40;100092.00;;;;2078457;28;20205;-51
2022/06/30 00:08:52;;;;;;;8.20;7.60;;;;;25.40;100093.00;;;;2079143;28;20452;-50
2022/06/30 00:09:52;;;;;;;8.52;7.82;;;;;25.40;100089.00;;;;2079397;28;20237;-49
2022/06/30 00:10:53;;;;;;;8.93;8.23;;;;;25.40;100101.00;;;;2074729;28;20709;-50
2022/06/30 00:11:53;;;;;;;8.17;7.47;;;;;25.40;100098.00;;;;2073425;28;20723;-51
2022/06/30 00:12:54;;;;;;;9.17;8.53;;;;;25.40;100085.00;;;;2072379;28;20214;-51
2022/06/30 00:13:54;;;;;;;8.80;7.90;;;;;25.40;100090.00;;;;2070178;28;20304;-50
2022/06/30 00:14:54;;;;;;;8.60;8.00;;;;;25.40;100087.00;;;;2070939;28;20542;-50
2022/06/30 00:15:55;;;;;;;8.93;8.23;;;;;25.50;100083.00;;;;2078664;28;20216;-51
2022/06/30 00:16:55;;;;;;;8.23;7.50;;;;;25.40;100080.00;;;;2072204;28;20237;-51
2022/06/30 00:17:55;;;;;;;8.93;8.33;;;;;25.40;100088.00;;;;2069848;28;20288;-51
2022/06/30 00:18:56;;;;;;;8.60;7.90;;;;;25.50;100082.00;;;;2069866;28;20206;-50
2022/06/30 00:19:56;;;;;;;8.83;8.13;;;;;25.40;100083.00;;;;2070809;28;20217;-50
2022/06/30 00:20:57;;;;;;;9.00;8.23;;;;;25.50;100078.00;;;;2070921;28;20211;-50
2022/06/30 00:21:57;;;;;;;7.97;7.37;;;;;25.40;100073.00;;;;2070175;28;20983;-50
2022/06/30 00:22:57;;;;;;;8.30;7.70;;;;;25.40;100073.00;;;;2069622;28;20889;-51
2022/06/30 00:23:58;;;;;;;7.53;6.93;;;;;25.40;100070.00;;;;2075951;28;20241;-50
2022/06/30 00:24:58;;;;;;;8.60;7.83;;;;;25.40;99985.00;;;;2078975;28;20217;-50
2022/06/30 00:25:58;;;;;;;8.10;7.50;;;;;25.40;100076.00;;;;2071104;28;20221;-50
2022/06/30 00:26:59;;;;;;;8.37;7.53;;;;;25.40;100077.00;;;;2070092;28;20272;-50
2022/06/30 00:27:59;;;;;;;8.77;8.07;;;;;25.40;100078.00;;;;2069817;28;20210;-50
2022/06/30 00:28:59;;;;;;;8.00;7.40;;;;;25.40;100068.00;;;;2070906;28;20686;-49
2022/06/30 00:30:00;;;;;;;8.17;7.57;;;;;25.40;100076.00;;;;2070719;28;20268;-49
2022/06/30 00:31:00;;;;;;;7.97;7.37;;;;;25.40;100078.00;;;;2070975;28;20698;-49
2022/06/30 00:32:00;;;;;;;8.50;7.90;;;;;25.40;100076.00;;;;2072070;28;20673;-49
2022/06/30 00:33:01;;;;;;;7.73;7.03;;;;;25.40;100076.00;;;;2076803;28;20677;-51
2022/06/30 00:34:01;;;;;;;7.57;7.00;;;;;25.40;100074.00;;;;2070600;28;20256;-51
2022/06/30 00:35:02;;;;;;;7.77;7.17;;;;;25.40;100068.00;;;;2070757;28;20237;-50
2022/06/30 00:36:02;;;;;;;7.97;7.27;;;;;25.40;100066.00;;;;2075248;28;20213;-51
2022/06/30 00:37:02;;;;;;;8.00;7.40;;;;;25.40;100063.00;;;;2074408;28;20240;-50
2022/06/30 00:38:04;;;;;;;7.87;7.27;;;;;25.40;100067.00;;;;2074071;28;20283;-50
2022/06/30 00:39:04;;;;;;;8.55;7.85;;;;;25.40;100063.00;;;;2077891;28;20245;-49
2022/06/30 00:40:05;;;;;;;8.43;7.83;;;;;25.40;100057.00;;;;2078630;28;20275;-50
2022/06/30 00:41:05;;;;;;;7.37;6.87;;;;;25.40;100062.00;;;;2079305;28;20616;-50
2022/06/30 00:42:06;;;;;;;7.73;7.13;;;;;25.40;100065.00;;;;2079137;28;20217;-51
2022/06/30 00:43:06;;;;;;;8.30;7.70;;;;;25.40;100065.00;;;;2074805;28;20263;-49
2022/06/30 00:44:07;;;;;;;8.27;7.67;;;;;25.40;100059.00;;;;2078782;28;20697;-50
2022/06/30 00:45:08;;;;;;;8.77;8.00;;;;;25.40;100073.00;;;;2077404;28;20206;-51
2022/06/30 00:46:08;;;;;;;8.67;8.00;;;;;25.40;100062.00;;;;2073245;28;20207;-51
2022/06/30 00:47:10;;;;;;;7.93;7.33;;;;;25.40;100058.00;;;;2075024;28;20547;-50
2022/06/30 00:48:11;;;;;;;8.70;8.00;;;;;25.40;100069.00;;;;2077962;28;20217;-50
2022/06/30 00:49:11;;;;;;;8.23;7.63;;;;;25.40;100054.00;;;;2073711;28;20241;-50
2022/06/30 00:50:12;;;;;;;8.07;7.47;;;;;25.40;100100.00;;;;2073481;28;20225;-50
2022/06/30 00:51:12;;;;;;;8.40;7.80;;;;;25.40;100058.00;;;;2075590;28;23964;-49
2022/06/30 00:52:12;;;;;;;8.00;7.40;;;;;25.40;100059.00;;;;2070594;28;20224;-51
2022/06/30 00:53:13;;;;;;;8.60;8.00;;;;;25.40;100062.00;;;;2062215;28;20225;-51
2022/06/30 00:54:13;;;;;;;8.40;7.80;;;;;25.40;100064.00;;;;2063654;28;20352;-51
2022/06/30 00:55:15;;;;;;;8.53;7.73;;;;;25.40;100054.00;;;;2070346;28;20273;-51
2022/06/30 00:56:15;;;;;;;8.43;7.83;;;;;25.40;100049.00;;;;2065237;28;20446;-50
2022/06/30 00:57:15;;;;;;;8.83;8.13;;;;;25.40;100050.00;;;;2060846;28;20881;-50
2022/06/30 00:58:16;;;;;;;8.27;7.67;;;;;25.40;100043.00;;;;2061790;28;20663;-50
2022/06/30 00:59:16;;;;;;;8.30;7.70;;;;;25.40;100048.00;;;;2065199;28;20269;-50
2022/06/30 01:00:16;;;;;;;8.47;7.87;;;;;25.40;100042.00;;;;2058312;28;20693;-49
2022/06/30 01:01:17;;;;;;;8.73;7.73;;;;;25.40;100039.00;;;;2078238;28;20281;-50
2022/06/30 01:02:17;;;;;;;8.63;8.03;;;;;25.40;100040.00;;;;2069842;28;20279;-50
2022/06/30 01:03:17;;;;;;;8.50;7.80;;;;;25.40;100045.00;;;;2066982;28;20877;-48
2022/06/30 01:04:18;;;;;;;8.47;7.80;;;;;25.40;100049.00;;;;2055788;28;20212;-50
2022/06/30 01:05:19;;;;;;;8.30;7.60;;;;;25.40;100037.00;;;;2053761;28;20298;-49
2022/06/30 01:06:20;;;;;;;7.78;7.18;;;;;25.40;100033.00;;;;2061537;28;20301;-50
2022/06/30 01:07:21;;;;;;;8.17;7.57;;;;;25.40;100038.00;;;;2053123;28;20250;-50
2022/06/30 01:08:21;;;;;;;8.73;8.03;;;;;25.40;100026.00;;;;2073510;28;20221;-49
2022/06/30 01:13:18;;;;;;;8.32;7.72;;;;;25.40;100041.00;;;;2074832;28;20202;-50
2022/06/30 01:14:18;;;;;;;8.83;8.13;;;;;25.40;100042.00;;;;2062014;28;20247;-49
2022/06/30 01:15:20;;;;;;;8.90;8.30;;;;;25.40;100041.00;;;;2062390;28;20705;-53
2022/06/30 01:16:22;;;;;;;8.70;8.05;;;;;25.40;100037.00;;;;2074449;28;20252;-49
2022/06/30 01:17:22;;;;;;;9.30;8.40;;;;;25.40;100041.00;;;;2073614;28;20301;-50
2022/06/30 01:18:22;;;;;;;9.07;8.17;;;;;25.30;100038.00;;;;2070972;28;21000;-50
2022/06/30 01:19:23;;;;;;;8.53;7.90;;;;;25.40;100027.00;;;;2070911;28;20260;-50
2022/06/30 01:20:28;;;;;;;8.30;7.53;;;;;25.40;100034.00;;;;2073492;28;20222;-50
2022/06/30 01:21:28;;;;;;;8.35;7.70;;;;;25.40;100031.00;;;;2070896;28;20570;-50
2022/06/30 01:22:28;;;;;;;8.50;7.80;;;;;25.00;100029.00;;;;2070818;28;20228;-49
2022/06/30 01:23:29;;;;;;;8.70;8.10;;;;;25.30;100031.00;;;;2070915;28;20218;-51
2022/06/30 01:24:30;;;;;;;8.07;7.47;;;;;25.30;100033.00;;;;2073064;28;20248;-50
2022/06/30 01:25:30;;;;;;;8.87;7.83;;;;;25.30;100029.00;;;;2070158;28;21055;-50
2022/06/30 01:26:31;;;;;;;8.00;7.40;;;;;25.00;100033.00;;;;2070571;28;20309;-51
2022/06/30 01:27:31;;;;;;;8.20;7.57;;;;;25.20;100032.00;;;;2069063;28;20218;-50
2022/06/30 01:28:31;;;;;;;9.07;8.47;;;;;25.30;100032.00;;;;2069692;28;20214;-50
2022/06/30 01:29:32;;;;;;;8.37;7.60;;;;;25.30;100027.00;;;;2070438;28;20226;-50
2022/06/30 01:30:32;;;;;;;8.67;8.00;;;;;25.30;100026.00;;;;2075665;28;20309;-50
2022/06/30 01:31:32;;;;;;;8.27;7.47;;;;;25.30;100025.00;;;;2077945;28;20213;-49
2022/06/30 01:32:33;;;;;;;8.43;7.80;;;;;25.30;100021.00;;;;2075520;28;20293;-51
2022/06/30 01:33:33;;;;;;;8.60;7.90;;;;;25.30;100026.00;;;;2076079;28;20229;-50
2022/06/30 01:34:34;;;;;;;8.43;7.80;;;;;25.40;100020.00;;;;2074576;28;20288;-50
2022/06/30 01:35:34;;;;;;;8.43;7.80;;;;;25.30;100023.00;;;;2071470;28;20219;-50
2022/06/30 01:36:34;;;;;;;8.67;7.80;;;;;25.30;100031.00;;;;2076020;28;20226;-51
2022/06/30 01:37:45;;;;;;;8.17;7.57;;;;;25.40;100032.00;;;;2071160;28;20229;-50
2022/06/30 01:38:45;;;;;;;8.30;7.70;;;;;25.40;100031.00;;;;2072332;28;20264;-50
2022/06/30 01:39:45;;;;;;;8.00;7.40;;;;;25.30;100031.00;;;;2080369;28;20849;-50
2022/06/30 01:40:46;;;;;;;8.43;7.77;;;;;25.30;100031.00;;;;2080416;28;20743;-50
2022/06/30 01:41:46;;;;;;;8.20;7.43;;;;;25.30;100030.00;;;;2080294;28;20690;-50
2022/06/30 01:42:47;;;;;;;7.80;7.20;;;;;25.30;100024.00;;;;2076611;28;20300;-50
2022/06/30 01:43:47;;;;;;;8.40;7.80;;;;;25.30;100024.00;;;;2076757;28;20225;-51
2022/06/30 01:44:48;;;;;;;8.27;7.57;;;;;25.30;100019.00;;;;2072867;28;20237;-50
2022/06/30 01:45:48;;;;;;;8.17;7.47;;;;;25.30;100024.00;;;;2087025;28;20326;-50
2022/06/30 01:46:48;;;;;;;8.20;7.60;;;;;25.30;100020.00;;;;2077075;28;20221;-50
2022/06/30 01:47:50;;;;;;;8.33;7.73;;;;;25.30;100028.00;;;;2073625;28;20227;-50
2022/06/30 01:48:51;;;;;;;8.20;7.60;;;;;25.30;100025.00;;;;2072551;28;20226;-50
2022/06/30 01:49:51;;;;;;;8.53;7.93;;;;;25.30;100026.00;;;;2071032;28;20252;-50
2022/06/30 01:50:51;;;;;;;8.30;7.70;;;;;25.30;100023.00;;;;2077116;28;20569;-50
2022/06/30 01:51:52;;;;;;;8.13;7.43;;;;;25.30;100026.00;;;;2073894;28;20704;-50
2022/06/30 01:52:52;;;;;;;7.30;6.80;;;;;25.30;100021.00;;;;2079678;28;20213;-50
2022/06/30 01:53:53;;;;;;;7.80;7.20;;;;;25.30;100023.00;;;;2080290;28;20236;-50
2022/06/30 01:54:53;;;;;;;8.67;8.07;;;;;25.30;100024.00;;;;2080052;28;20591;-50
2022/06/30 01:55:53;;;;;;;7.93;7.33;;;;;25.30;100022.00;;;;2078218;28;20452;-50
2022/06/30 01:56:54;;;;;;;8.20;7.50;;;;;25.30;100024.00;;;;2072365;28;20222;-48
2022/06/30 01:57:54;;;;;;;8.50;7.80;;;;;25.30;100016.00;;;;2077132;28;20495;-50
2022/06/30 01:58:54;;;;;;;8.07;7.50;;;;;25.30;100024.00;;;;2080344;28;20232;-49
2022/06/30 01:59:55;;;;;;;7.90;7.30;;;;;25.30;100024.00;;;;2079614;28;20717;-49
2022/06/30 02:00:55;;;;;;;9.17;8.27;;;;;25.30;100027.00;;;;2076621;28;20632;-49
2022/06/30 02:01:55;;;;;;;7.33;6.80;;;;;25.30;100026.00;;;;2079566;28;20688;-50
2022/06/30 02:02:56;;;;;;;8.00;7.40;;;;;25.30;100018.00;;;;2080248;28;20695;-50
2022/06/30 02:04:46;;;;;;;8.10;7.50;;;;;25.30;100016.00;;;;2077393;28;20872;-50
2022/06/30 02:05:17;;;;;;;8.32;7.63;;;;;25.30;100016.00;;;;2073196;28;20632;-51
2022/06/30 02:06:17;;;;;;;8.47;7.87;;;;;25.30;100022.00;;;;2080158;28;20214;-50
2022/06/30 02:07:18;;;;;;;8.47;7.77;;;;;25.30;100016.00;;;;2079521;28;20213;-50
2022/06/30 02:08:18;;;;;;;7.57;7.03;;;;;25.30;100015.00;;;;2079484;28;20211;-49
2022/06/30 02:09:19;;;;;;;8.10;7.50;;;;;25.30;100007.00;;;;2075260;28;20840;-50
2022/06/30 02:10:21;;;;;;;8.00;7.40;;;;;25.30;100014.00;;;;2077951;28;20252;-50
2022/06/30 02:11:21;;;;;;;7.80;7.20;;;;;25.30;100012.00;;;;2079825;28;20216;-50
2022/06/30 02:13:42;;;;;;;8.40;7.77;;;;;25.30;100020.00;;;;2079616;28;20220;-51
2022/06/30 02:14:42;;;;;;;8.33;7.73;;;;;25.30;100017.00;;;;2079698;28;20444;-54
2022/06/30 02:15:42;;;;;;;8.50;7.80;;;;;25.30;100007.00;;;;2079672;28;20464;-50
2022/06/30 02:16:43;;;;;;;7.77;7.17;;;;;25.30;100013.00;;;;2079641;28;20220;-50
2022/06/30 02:17:43;;;;;;;7.80;7.20;;;;;25.30;100012.00;;;;2069439;28;20219;-50
2022/06/30 02:18:43;;;;;;;7.90;7.30;;;;;25.30;100009.00;;;;2076624;28;20245;-49
2022/06/30 02:19:44;;;;;;;8.30;7.70;;;;;25.30;100016.00;;;;2077728;28;20228;-49
2022/06/30 02:20:44;;;;;;;7.97;7.40;;;;;25.30;100038.00;;;;2071886;28;20733;-50
2022/06/30 02:21:44;;;;;;;7.70;7.07;;;;;25.30;100010.00;;;;2071271;28;20252;-51
2022/06/30 02:22:45;;;;;;;7.50;6.90;;;;;25.30;100012.00;;;;2079433;28;20217;-49
2022/06/30 02:23:45;;;;;;;8.20;7.63;;;;;25.30;100019.00;;;;2077867;28;20221;-51
2022/06/30 02:24:46;;;;;;;8.40;7.80;;;;;25.30;100015.00;;;;2071675;28;20221;-49
2022/06/30 02:25:46;;;;;;;8.20;7.50;;;;;25.30;100012.00;;;;2071662;28;20218;-53
2022/06/30 02:26:46;;;;;;;7.90;7.30;;;;;25.30;100018.00;;;;2075181;28;20736;-48
2022/06/30 02:27:47;;;;;;;8.37;7.77;;;;;25.30;99992.00;;;;2074619;28;20681;-49
2022/06/30 02:28:47;;;;;;;7.60;7.00;;;;;25.30;100030.00;;;;2072179;28;20686;-49
2022/06/30 02:29:47;;;;;;;7.97;7.40;;;;;25.30;100029.00;;;;2071580;28;20210;-50
2022/06/30 02:30:48;;;;;;;7.77;7.20;;;;;25.30;100019.00;;;;2075808;28;20220;-50
2022/06/30 02:31:48;;;;;;;8.30;7.70;;;;;25.30;100031.00;;;;2078396;28;20217;-50
2022/06/30 02:32:49;;;;;;;7.80;7.10;;;;;25.30;100033.00;;;;2077449;28;20218;-50
2022/06/30 02:33:49;;;;;;;8.43;7.73;;;;;25.30;100027.00;;;;2080006;28;20217;-50
2022/06/30 02:34:50;;;;;;;8.87;8.07;;;;;25.30;100021.00;;;;2079444;28;20776;-50
2022/06/30 02:35:50;;;;;;;7.60;7.10;;;;;25.30;100024.00;;;;2067569;28;20641;-48
2022/06/30 02:36:50;;;;;;;7.73;7.13;;;;;25.30;100034.00;;;;2076087;28;20335;-51
2022/06/30 02:37:51;;;;;;;8.47;7.87;;;;;25.30;100027.00;;;;2079184;28;20252;-50
2022/06/30 02:38:51;;;;;;;7.70;7.10;;;;;25.30;100026.00;;;;2079594;28;20217;-50
2022/06/30 02:39:51;;;;;;;7.90;7.30;;;;;25.30;100034.00;;;;2074504;28;20773;-50
2022/06/30 02:40:52;;;;;;;7.83;7.33;;;;;25.30;100021.00;;;;2079880;28;20584;-50
2022/06/30 02:41:52;;;;;;;7.90;7.30;;;;;25.30;100019.00;;;;2073112;28;20223;-50
2022/06/30 02:42:52;;;;;;;7.07;6.43;;;;;25.30;100023.00;;;;2071565;28;20213;-50
2022/06/30 02:43:53;;;;;;;8.30;7.70;;;;;25.30;100033.00;;;;2074350;28;20822;-49
2022/06/30 02:44:53;;;;;;;8.20;7.60;;;;;25.30;100026.00;;;;2075681;28;20228;-51
2022/06/30 02:45:53;;;;;;;7.73;7.13;;;;;25.30;100026.00;;;;2079388;28;20282;-51
2022/06/30 02:46:54;;;;;;;8.00;7.40;;;;;25.30;100020.00;;;;2079636;28;20229;-49
2022/06/30 02:47:55;;;;;;;8.20;7.60;;;;;25.30;100023.00;;;;2079047;28;20228;-51
2022/06/30 02:48:56;;;;;;;8.10;7.40;;;;;25.30;100038.00;;;;2074685;28;20896;-51
2022/06/30 02:49:56;;;;;;;7.90;7.27;;;;;25.30;100028.00;;;;2071125;28;20453;-50
2022/06/30 02:50:56;;;;;;;7.30;6.80;;;;;25.30;100024.00;;;;2071063;28;20202;-50
2022/06/30 02:51:57;;;;;;;7.50;6.90;;;;;25.30;100023.00;;;;2070858;28;20293;-50
2022/06/30 02:52:57;;;;;;;7.63;7.10;;;;;25.30;100028.00;;;;2071396;28;20230;-52
2022/06/30 02:53:58;;;;;;;8.07;7.47;;;;;25.30;100022.00;;;;2073569;28;20214;-49
2022/06/30 02:54:58;;;;;;;7.27;6.67;;;;;25.30;100027.00;;;;2079215;28;20209;-49
2022/06/30 02:55:59;;;;;;;7.83;7.30;;;;;25.30;100014.00;;;;2078823;28;20213;-50
2022/06/30 02:56:59;;;;;;;8.50;7.80;;;;;25.30;100019.00;;;;2074513;28;20445;-49
2022/06/30 02:57:59;;;;;;;8.33;7.63;;;;;25.30;100040.00;;;;2076202;28;20567;-49
2022/06/30 02:59:00;;;;;;;7.63;6.93;;;;;25.30;100045.00;;;;2073065;28;20813;-50
2022/06/30 03:00:00;;;;;;;8.03;7.43;;;;;25.30;100025.00;;;;2071352;28;20600;-50
2022/06/30 03:01:00;;;;;;;7.67;7.07;;;;;25.30;100040.00;;;;2072330;28;20554;-50
2022/06/30 03:02:01;;;;;;;8.23;7.63;;;;;25.30;100024.00;;;;2078845;28;20716;-50
2022/06/30 03:03:02;;;;;;;7.23;6.73;;;;;25.30;100028.00;;;;2059328;28;20219;-50
2022/06/30 03:04:03;;;;;;;8.40;7.80;;;;;25.30;100025.00;;;;2053984;28;20510;-50
2022/06/30 03:05:04;;;;;;;8.10;7.60;;;;;25.30;100017.00;;;;2075439;28;20287;-50
2022/06/30 03:06:04;;;;;;;7.33;6.77;;;;;25.20;100025.00;;;;2074846;28;20721;-51
2022/06/30 03:07:04;;;;;;;7.93;7.33;;;;;25.30;100025.00;;;;2077399;28;20229;-50
2022/06/30 03:08:05;;;;;;;8.10;7.50;;;;;25.30;100034.00;;;;2078104;28;20209;-49
2022/06/30 03:09:05;;;;;;;8.17;7.57;;;;;25.20;100024.00;;;;2079105;28;20574;-50
2022/06/30 03:10:06;;;;;;;7.37;6.83;;;;;25.20;100022.00;;;;2077260;28;20267;-50
2022/06/30 03:11:06;;;;;;;8.13;7.53;;;;;25.20;100020.00;;;;2070705;28;20217;-50
2022/06/30 03:12:06;;;;;;;7.53;6.93;;;;;25.20;100020.00;;;;2070652;28;20933;-50
2022/06/30 03:13:07;;;;;;;7.80;7.13;;;;;25.20;100022.00;;;;2071050;28;20626;-49
2022/06/30 03:14:07;;;;;;;8.63;7.93;;;;;25.30;100018.00;;;;2072911;28;20215;-50
2022/06/30 03:15:08;;;;;;;7.80;7.10;;;;;25.30;100022.00;;;;2073942;28;20214;-49
2022/06/30 03:16:08;;;;;;;7.70;7.10;;;;;25.30;100020.00;;;;2078268;28;20225;-50
2022/06/30 03:17:08;;;;;;;8.20;7.57;;;;;25.30;100020.00;;;;2079733;28;20224;-50
2022/06/30 03:18:09;;;;;;;7.70;7.20;;;;;25.20;100012.00;;;;2078748;28;20298;-50
2022/06/30 03:19:09;;;;;;;8.07;7.47;;;;;25.30;100021.00;;;;2075192;28;20229;-51
2022/06/30 03:20:10;;;;;;;8.00;7.30;;;;;25.20;100017.00;;;;2079785;28;20220;-50
2022/06/30 03:21:10;;;;;;;8.87;8.27;;;;;25.20;100018.00;;;;2075461;28;20662;-50
2022/06/30 03:22:10;;;;;;;7.80;7.20;;;;;25.20;100019.00;;;;2079335;28;20248;-49
2022/06/30 03:23:11;;;;;;;8.00;7.40;;;;;25.20;100019.00;;;;2077225;28;20213;-50
2022/06/30 03:24:11;;;;;;;7.53;7.00;;;;;25.20;100021.00;;;;2070401;28;20233;-50
2022/06/30 03:25:11;;;;;;;8.20;7.30;;;;;25.20;100021.00;;;;2070249;28;20218;-49
2022/06/30 03:26:12;;;;;;;7.67;7.17;;;;;25.20;100022.00;;;;2070633;28;20218;-49
2022/06/30 03:27:14;;;;;;;8.03;7.37;;;;;25.20;100019.00;;;;2069946;28;20257;-48
2022/06/30 03:28:16;;;;;;;8.15;7.50;;;;;25.20;100015.00;;;;2061561;28;20215;-50
2022/06/30 03:29:17;;;;;;;7.87;7.27;;;;;25.20;100020.00;;;;2069889;28;20236;-49
2022/06/30 03:30:17;;;;;;;7.83;7.23;;;;;25.20;100018.00;;;;2065683;28;20492;-49
2022/06/30 03:31:17;;;;;;;8.07;7.37;;;;;25.20;100020.00;;;;2078543;28;20209;-49
2022/06/30 03:32:18;;;;;;;7.50;6.90;;;;;25.20;100020.00;;;;2073972;28;20305;-49
2022/06/30 03:33:18;;;;;;;8.27;7.67;;;;;25.20;100020.00;;;;2070065;28;20232;-50
2022/06/30 03:34:19;;;;;;;8.40;7.77;;;;;25.20;100023.00;;;;2066831;28;20218;-50
2022/06/30 03:35:19;;;;;;;7.63;7.00;;;;;25.20;100019.00;;;;2071050;28;20214;-49
2022/06/30 03:36:20;;;;;;;7.70;7.00;;;;;25.20;100027.00;;;;2076682;28;20213;-49
2022/06/30 03:37:20;;;;;;;8.30;7.70;;;;;25.20;100022.00;;;;2077045;28;20812;-49
2022/06/30 03:38:21;;;;;;;7.73;7.03;;;;;25.20;100021.00;;;;2071184;28;20233;-50
2022/06/30 03:39:21;;;;;;;7.60;7.00;;;;;25.20;100022.00;;;;2071211;28;20210;-51
2022/06/30 03:40:21;;;;;;;8.10;7.50;;;;;25.20;100020.00;;;;2071188;28;20206;-50
2022/06/30 03:41:22;;;;;;;7.70;7.20;;;;;25.20;100026.00;;;;2070800;28;20202;-49
2022/06/30 03:42:23;;;;;;;7.70;7.17;;;;;25.20;100020.00;;;;2070947;28;20209;-50
2022/06/30 03:43:23;;;;;;;8.18;7.57;;;;;25.20;100014.00;;;;2071119;28;20276;-49
2022/06/30 03:44:23;;;;;;;7.50;6.90;;;;;25.20;100024.00;;;;2071145;28;20380;-50
2022/06/30 03:45:24;;;;;;;8.20;7.60;;;;;25.20;100027.00;;;;2069143;28;20249;-49
2022/06/30 03:46:24;;;;;;;7.83;7.23;;;;;25.20;100019.00;;;;2078779;28;20226;-48
2022/06/30 03:47:25;;;;;;;7.27;6.77;;;;;25.20;100019.00;;;;2078182;28;20222;-50
2022/06/30 03:48:25;;;;;;;7.57;6.87;;;;;25.20;100019.00;;;;2077368;28;20213;-50
2022/06/30 03:49:26;;;;;;;8.17;7.47;;;;;25.20;100018.00;;;;2078278;28;20344;-49
2022/06/30 03:50:26;;;;;;;7.90;7.30;;;;;25.20;100024.00;;;;2078870;28;20214;-51
2022/06/30 03:51:27;;;;;;;8.00;7.40;;;;;25.20;100023.00;;;;2072315;28;20252;-51
2022/06/30 03:52:27;;;;;;;7.67;7.07;;;;;25.20;100020.00;;;;2079481;28;20452;-49
2022/06/30 03:53:28;;;;;;;8.00;7.40;;;;;25.20;100017.00;;;;2079202;28;20952;-50
2022/06/30 03:54:31;;;;;;;7.67;7.10;;;;;25.20;100026.00;;;;2079301;28;20221;-50
2022/06/30 03:55:33;;;;;;;8.18;7.57;;;;;25.20;100016.00;;;;2070721;28;20273;-50
2022/06/30 03:56:33;;;;;;;8.00;7.40;;;;;24.90;100020.00;;;;2070078;28;20891;-49
2022/06/30 03:57:34;;;;;;;6.90;6.40;;;;;25.20;100013.00;;;;2069750;28;20229;-48
2022/06/30 03:58:34;;;;;;;7.17;6.67;;;;;25.20;100020.00;;;;2075136;28;20226;-51
2022/06/30 03:59:36;;;;;;;8.07;7.43;;;;;25.20;100020.00;;;;2079165;28;20226;-52
2022/06/30 04:00:37;;;;;;;7.93;7.32;;;;;25.20;100025.00;;;;2076856;28;20237;-51
2022/06/30 04:01:37;;;;;;;7.90;7.30;;;;;25.20;100016.00;;;;2071290;28;20206;-50
2022/06/30 04:02:38;;;;;;;7.70;7.10;;;;;25.20;100019.00;;;;2075269;28;20213;-51
2022/06/30 04:03:38;;;;;;;7.20;6.70;;;;;25.20;100014.00;;;;2074298;28;20214;-51
2022/06/30 04:04:39;;;;;;;7.87;7.33;;;;;25.20;100016.00;;;;2073253;28;20227;-50
2022/06/30 04:05:40;;;;;;;7.83;7.17;;;;;25.20;100027.00;;;;2079349;28;20225;-49
2022/06/30 04:06:41;;;;;;;8.50;7.80;;;;;25.10;100017.00;;;;2079153;28;20558;-49
2022/06/30 04:07:42;;;;;;;8.13;7.40;;;;;25.20;99931.00;;;;2076945;28;20275;-51
2022/06/30 04:08:42;;;;;;;7.93;7.23;;;;;25.20;100019.00;;;;2077343;28;20221;-49
2022/06/30 04:09:42;;;;;;;7.60;7.00;;;;;25.20;100015.00;;;;2079371;28;20967;-51
2022/06/30 04:10:43;;;;;;;8.13;7.43;;;;;25.20;100018.00;;;;2078395;28;20305;-50
2022/06/30 04:11:44;;;;;;;7.27;6.70;;;;;25.20;100013.00;;;;2075522;28;20225;-50
2022/06/30 04:12:45;;;;;;;7.55;6.93;;;;;25.20;100020.00;;;;2078855;28;20272;-50
2022/06/30 04:13:45;;;;;;;8.13;7.53;;;;;25.20;100017.00;;;;2079103;28;20291;-50
2022/06/30 04:14:45;;;;;;;7.80;7.20;;;;;25.20;100016.00;;;;2078983;28;20932;-49
2022/06/30 04:15:45;;;;;;;8.07;7.37;;;;;25.20;100014.00;;;;2074544;28;20956;-50
2022/06/30 04:16:46;;;;;;;7.83;7.33;;;;;25.20;100008.00;;;;2075603;28;20860;-53
2022/06/30 04:17:46;;;;;;;7.80;7.20;;;;;25.20;100012.00;;;;2074385;28;20237;-51
2022/06/30 04:18:47;;;;;;;7.80;7.27;;;;;25.20;100012.00;;;;2074776;28;20213;-48
2022/06/30 04:19:47;;;;;;;8.07;7.37;;;;;25.20;99920.00;;;;2078188;28;20224;-50
2022/06/30 04:20:47;;;;;;;8.57;7.97;;;;;25.20;100018.00;;;;2076443;28;20674;-50
2022/06/30 04:21:47;;;;;;;8.10;7.50;;;;;25.20;100016.00;;;;2072633;28;21074;-49
2022/06/30 04:22:49;;;;;;;8.57;7.87;;;;;25.20;100015.00;;;;2071201;28;20574;-50
2022/06/30 04:23:49;;;;;;;8.00;7.30;;;;;25.20;100015.00;;;;2070733;28;20237;-50
2022/06/30 04:24:50;;;;;;;8.53;7.90;;;;;25.20;100013.00;;;;2077063;28;20459;-50
2022/06/30 04:25:50;;;;;;;8.80;8.10;;;;;25.20;100010.00;;;;2070896;28;20225;-49
2022/06/30 04:26:51;;;;;;;8.40;7.80;;;;;25.20;100017.00;;;;2069910;28;20307;-50
2022/06/30 04:27:52;;;;;;;7.87;7.37;;;;;25.20;100014.00;;;;2069996;28;20214;-50
2022/06/30 04:28:54;;;;;;;8.17;7.50;;;;;25.20;100012.00;;;;2075487;28;20213;-53
2022/06/30 04:29:54;;;;;;;8.83;8.03;;;;;25.20;100007.00;;;;2078976;28;20449;-51
2022/06/30 04:33:33;;;;;;;7.47;6.97;;;;;25.20;100005.00;;;;2077359;28;20228;-50
2022/06/30 04:34:33;;;;;;;7.70;7.10;;;;;25.20;100012.00;;;;2074817;28;20714;-50
2022/06/30 04:35:34;;;;;;;8.63;7.93;;;;;25.20;100004.00;;;;2070830;28;20222;-50
2022/06/30 04:36:35;;;;;;;8.48;7.88;;;;;25.20;100002.00;;;;2070097;28;20229;-50
2022/06/30 04:37:35;;;;;;;9.10;8.43;;;;;25.20;100012.00;;;;2075824;28;20209;-50
2022/06/30 04:38:35;;;;;;;7.80;7.20;;;;;25.20;100006.00;;;;2070688;28;20371;-50
2022/06/30 04:39:36;;;;;;;8.30;7.60;;;;;25.20;100007.00;;;;2069735;28;20217;-49
2022/06/30 04:41:55;;;;;;;8.63;7.95;;;;;25.20;100016.00;;;;2070366;28;20206;-51
2022/06/30 04:42:55;;;;;;;8.90;8.30;;;;;25.20;100011.00;;;;2076389;28;20214;-49
2022/06/30 04:43:57;;;;;;;8.50;7.90;;;;;24.90;100013.00;;;;2071472;28;20209;-49
2022/06/30 04:44:57;;;;;;;7.88;7.28;;;;;25.20;100008.00;;;;2074794;28;20620;-49
2022/06/30 04:45:58;;;;;;;9.30;8.60;;;;;25.20;100007.00;;;;2073714;28;20292;-49
2022/06/30 04:46:58;;;;;;;8.10;7.50;;;;;25.20;100006.00;;;;2076357;28;20241;-50
2022/06/30 04:47:58;;;;;;;8.03;7.43;;;;;25.20;100003.00;;;;2077667;28;20217;-50
2022/06/30 04:48:59;;;;;;;9.40;8.60;;;;;25.20;100008.00;;;;2076323;28;20224;-50
2022/06/30 04:49:59;;;;;;;7.97;7.47;;;;;25.20;100003.00;;;;2077037;28;20245;-50
2022/06/30 04:51:00;;;;;;;9.30;8.60;;;;;25.20;100009.00;;;;2072346;28;20210;-49
2022/06/30 04:52:00;;;;;;;10.03;9.03;;;;;25.20;99997.00;;;;2073741;28;20276;-50
2022/06/30 04:53:00;;;;;;;8.50;7.80;;;;;25.20;99997.00;;;;2077432;28;20612;-51
2022/06/30 04:54:01;;;;;;;9.40;8.70;;;;;25.20;99999.00;;;;2078149;28;20621;-50
2022/06/30 04:55:01;;;;;;;9.30;8.70;;;;;25.20;100004.00;;;;2074515;28;20248;-50
2022/06/30 04:56:02;;;;;;;8.30;7.60;;;;;25.20;99997.00;;;;2075649;28;20276;-50
2022/06/30 04:57:02;;;;;;;8.93;8.17;;;;;25.20;99996.00;;;;2077345;28;20221;-49
2022/06/30 04:58:03;;;;;;;8.77;8.00;;;;;25.10;99995.00;;;;2065844;28;20214;-50
2022/06/30 04:59:03;;;;;;;8.90;8.23;;;;;25.20;99995.00;;;;2071088;28;20583;-48
2022/06/30 05:00:05;;;;;;;7.80;7.20;;;;;25.20;100000.00;;;;2075114;28;20260;-50
2022/06/30 05:01:05;;;;;;;8.95;8.35;;;;;25.20;100000.00;;;;2071340;28;20851;-49
2022/06/30 05:02:06;;;;;;;8.60;7.90;;;;;25.20;99994.00;;;;2070408;28;20214;-50
2022/06/30 05:03:06;;;;;;;8.37;7.77;;;;;25.20;99998.00;;;;2072101;28;20206;-50
2022/06/30 05:04:06;;;;;;;8.70;7.90;;;;;25.20;99998.00;;;;2076060;28;20259;-50
2022/06/30 05:05:07;;;;;;;8.23;7.53;;;;;25.20;99988.00;;;;2078606;28;20205;-50
2022/06/30 05:06:08;;;;;;;7.90;7.27;;;;;25.20;99994.00;;;;2078203;28;20206;-50
2022/06/30 05:07:08;;;;;;;9.47;8.77;;;;;25.20;99990.00;;;;2077461;28;20223;-50
2022/06/30 05:08:08;;;;;;;8.47;7.67;;;;;25.20;99984.00;;;;2074725;28;20213;-50
2022/06/30 05:09:09;;;;;;;8.43;7.77;;;;;25.20;99986.00;;;;2073551;28;20241;-49